sensor_id;sensor_type;location;lat;lon;timestamp;pressure;altitude;pressure_sealevel;temperature;humidity
49813;BME280;35706;52.100;5.056;2023-02-12T00:00:47;103805.84;;;7.55;97.87
49813;BME280;35706;52.100;5.056;2023-02-12T00:01:47;103813.53;;;7.62;97.60
49813;BME280;35706;52.100;5.056;2023-02-12T00:02:50;103815.41;;;7.58;97.70
49813;BME280;35706;52.100;5.056;2023-02-12T00:03:50;103803.31;;;7.52;97.72
49813;BME280;35706;52.100;5.056;2023-02-12T00:04:51;103801.63;;;7.51;97.88
49813;BME280;35706;52.100;5.056;2023-02-12T00:05:54;103805.91;;;7.54;97.91
49813;BME280;35706;52.100;5.056;2023-02-12T00:06:54;103796.50;;;7.47;98.11
49813;BME280;35706;52.100;5.056;2023-02-12T00:07:54;103799.13;;;7.47;98.33
49813;BME280;35706;52.100;5.056;2023-02-12T00:08:56;103800.03;;;7.46;98.29
49813;BME280;35706;52.100;5.056;2023-02-12T00:09:56;103799.19;;;7.45;98.25
49813;BME280;35706;52.100;5.056;2023-02-12T00:10:57;103801.63;;;7.51;98.33
49813;BME280;35706;52.100;5.056;2023-02-12T00:11:57;103801.66;;;7.50;98.11
49813;BME280;35706;52.100;5.056;2023-02-12T00:12:57;103801.72;;;7.47;98.24
49813;BME280;35706;52.100;5.056;2023-02-12T00:13:58;103800.88;;;7.46;98.55
49813;BME280;35706;52.100;5.056;2023-02-12T00:14:58;103802.69;;;7.44;98.50
49813;BME280;35706;52.100;5.056;2023-02-12T00:15:58;103801.84;;;7.44;98.44
49813;BME280;35706;52.100;5.056;2023-02-12T00:16:59;103805.25;;;7.46;98.38
49813;BME280;35706;52.100;5.056;2023-02-12T00:17:59;103802.69;;;7.44;98.31
49813;BME280;35706;52.100;5.056;2023-02-12T00:18:59;103798.28;;;7.45;98.38
49813;BME280;35706;52.100;5.056;2023-02-12T00:20:00;103797.44;;;7.44;98.40
49813;BME280;35706;52.100;5.056;2023-02-12T00:21:00;103801.91;;;7.41;98.55
49813;BME280;35706;52.100;5.056;2023-02-12T00:22:01;103800.16;;;7.41;98.57
49813;BME280;35706;52.100;5.056;2023-02-12T00:23:01;103801.91;;;7.41;98.71
49813;BME280;35706;52.100;5.056;2023-02-12T00:24:02;103806.91;;;7.50;98.34
49813;BME280;35706;52.100;5.056;2023-02-12T00:25:03;103810.50;;;7.46;98.34
49813;BME280;35706;52.100;5.056;2023-02-12T00:26:05;103796.44;;;7.50;98.29
49813;BME280;35706;52.100;5.056;2023-02-12T00:27:06;103798.88;;;7.56;97.88
49813;BME280;35706;52.100;5.056;2023-02-12T00:28:06;103803.28;;;7.54;97.82
49813;BME280;35706;52.100;5.056;2023-02-12T00:29:06;103805.78;;;7.59;97.79
49813;BME280;35706;52.100;5.056;2023-02-12T00:30:07;103793.81;;;7.50;97.93
49813;BME280;35706;52.100;5.056;2023-02-12T00:31:18;103793.06;;;7.45;98.28
49813;BME280;35706;52.100;5.056;2023-02-12T00:32:19;103804.28;;;7.50;98.17
49813;BME280;35706;52.100;5.056;2023-02-12T00:33:19;103794.66;;;7.50;98.17
49813;BME280;35706;52.100;5.056;2023-02-12T00:34:19;103806.13;;;7.46;98.35
49813;BME280;35706;52.100;5.056;2023-02-12T00:35:20;103794.75;;;7.47;98.29
49813;BME280;35706;52.100;5.056;2023-02-12T00:36:22;103801.09;;;7.39;98.68
49813;BME280;35706;52.100;5.056;2023-02-12T00:37:23;103806.38;;;7.37;98.74
49813;BME280;35706;52.100;5.056;2023-02-12T00:38:23;103805.44;;;7.40;98.80
49813;BME280;35706;52.100;5.056;2023-02-12T00:39:23;103799.25;;;7.42;98.67
49813;BME280;35706;52.100;5.056;2023-02-12T00:40:26;103793.06;;;7.45;98.42
49813;BME280;35706;52.100;5.056;2023-02-12T00:41:27;103796.63;;;7.42;98.58
49813;BME280;35706;52.100;5.056;2023-02-12T00:42:27;103801.00;;;7.42;98.68
49813;BME280;35706;52.100;5.056;2023-02-12T00:43:27;103793.16;;;7.42;98.69
49813;BME280;35706;52.100;5.056;2023-02-12T00:44:28;103786.91;;;7.47;98.58
49813;BME280;35706;52.100;5.056;2023-02-12T00:45:28;103790.44;;;7.45;98.38
49813;BME280;35706;52.100;5.056;2023-02-12T00:46:28;103793.81;;;7.50;98.26
49813;BME280;35706;52.100;5.056;2023-02-12T00:47:29;103784.97;;;7.54;98.12
49813;BME280;35706;52.100;5.056;2023-02-12T00:48:29;103786.53;;;7.60;97.78
49813;BME280;35706;52.100;5.056;2023-02-12T00:49:31;103797.00;;;7.60;97.70
49813;BME280;35706;52.100;5.056;2023-02-12T00:50:34;103797.06;;;7.58;97.81
49813;BME280;35706;52.100;5.056;2023-02-12T00:51:34;103787.31;;;7.63;97.49
49813;BME280;35706;52.100;5.056;2023-02-12T00:52:35;103790.72;;;7.67;97.19
49813;BME280;35706;52.100;5.056;2023-02-12T00:53:35;103790.03;;;7.60;97.27
49813;BME280;35706;52.100;5.056;2023-02-12T00:54:36;103785.84;;;7.53;97.67
49813;BME280;35706;52.100;5.056;2023-02-12T00:55:36;103790.41;;;7.46;97.89
49813;BME280;35706;52.100;5.056;2023-02-12T00:56:37;103787.09;;;7.41;98.14
49813;BME280;35706;52.100;5.056;2023-02-12T00:57:37;103785.44;;;7.37;98.50
49813;BME280;35706;52.100;5.056;2023-02-12T00:58:37;103788.88;;;7.39;98.63
49813;BME280;35706;52.100;5.056;2023-02-12T00:59:38;103788.94;;;7.36;98.52
49813;BME280;35706;52.100;5.056;2023-02-12T01:00:39;103787.16;;;7.38;98.59
49813;BME280;35706;52.100;5.056;2023-02-12T01:01:39;103783.59;;;7.41;98.56
49813;BME280;35706;52.100;5.056;2023-02-12T01:02:39;103784.41;;;7.43;98.60
49813;BME280;35706;52.100;5.056;2023-02-12T01:03:40;103787.94;;;7.42;98.58
49813;BME280;35706;52.100;5.056;2023-02-12T01:04:40;103787.81;;;7.45;98.43
49813;BME280;35706;52.100;5.056;2023-02-12T01:05:41;103786.13;;;7.44;98.57
49813;BME280;35706;52.100;5.056;2023-02-12T01:06:41;103791.34;;;7.45;98.57
49813;BME280;35706;52.100;5.056;2023-02-12T01:07:41;103792.31;;;7.41;98.58
49813;BME280;35706;52.100;5.056;2023-02-12T01:08:41;103788.81;;;7.41;98.56
49813;BME280;35706;52.100;5.056;2023-02-12T01:09:42;103793.16;;;7.42;98.71
49813;BME280;35706;52.100;5.056;2023-02-12T01:10:43;103789.72;;;7.40;98.63
49813;BME280;35706;52.100;5.056;2023-02-12T01:11:43;103787.00;;;7.43;98.58
49813;BME280;35706;52.100;5.056;2023-02-12T01:12:43;103793.06;;;7.45;98.53
49813;BME280;35706;52.100;5.056;2023-02-12T01:13:44;103796.50;;;7.47;98.47
49813;BME280;35706;52.100;5.056;2023-02-12T01:14:44;103792.22;;;7.44;98.35
49813;BME280;35706;52.100;5.056;2023-02-12T01:15:45;103795.44;;;7.54;98.15
49813;BME280;35706;52.100;5.056;2023-02-12T01:16:45;103788.66;;;7.47;97.90
49813;BME280;35706;52.100;5.056;2023-02-12T01:17:45;103793.94;;;7.45;97.94
49813;BME280;35706;52.100;5.056;2023-02-12T01:18:46;103792.25;;;7.43;98.06
49813;BME280;35706;52.100;5.056;2023-02-12T01:19:47;103793.00;;;7.48;98.06
49813;BME280;35706;52.100;5.056;2023-02-12T01:20:47;103796.41;;;7.51;97.84
49813;BME280;35706;52.100;5.056;2023-02-12T01:21:47;103793.72;;;7.53;97.71
49813;BME280;35706;52.100;5.056;2023-02-12T01:22:48;103794.53;;;7.55;97.77
49813;BME280;35706;52.100;5.056;2023-02-12T01:23:49;103788.31;;;7.59;97.53
49813;BME280;35706;52.100;5.056;2023-02-12T01:24:49;103798.81;;;7.58;97.65
49813;BME280;35706;52.100;5.056;2023-02-12T01:25:53;103791.09;;;7.53;97.61
49813;BME280;35706;52.100;5.056;2023-02-12T01:26:53;103787.66;;;7.51;97.63
49813;BME280;35706;52.100;5.056;2023-02-12T01:27:53;103795.50;;;7.51;97.84
49813;BME280;35706;52.100;5.056;2023-02-12T01:28:56;103786.03;;;7.47;97.82
49813;BME280;35706;52.100;5.056;2023-02-12T01:29:57;103789.63;;;7.43;98.05
49813;BME280;35706;52.100;5.056;2023-02-12T01:30:57;103793.03;;;7.46;97.94
49813;BME280;35706;52.100;5.056;2023-02-12T01:31:57;103789.47;;;7.49;97.88
49813;BME280;35706;52.100;5.056;2023-02-12T01:32:58;103786.91;;;7.47;97.85
49813;BME280;35706;52.100;5.056;2023-02-12T01:33:59;103794.63;;;7.52;97.75
49813;BME280;35706;52.100;5.056;2023-02-12T01:35:00;103793.03;;;7.46;97.76
49813;BME280;35706;52.100;5.056;2023-02-12T01:36:01;103793.97;;;7.44;98.08
49813;BME280;35706;52.100;5.056;2023-02-12T01:37:01;103796.66;;;7.41;98.27
49813;BME280;35706;52.100;5.056;2023-02-12T01:38:01;103799.38;;;7.38;98.23
49813;BME280;35706;52.100;5.056;2023-02-12T01:39:03;103795.81;;;7.40;98.19
49813;BME280;35706;52.100;5.056;2023-02-12T01:40:06;103795.00;;;7.38;98.31
49813;BME280;35706;52.100;5.056;2023-02-12T01:41:12;103795.84;;;7.39;98.17
49813;BME280;35706;52.100;5.056;2023-02-12T01:42:14;103796.81;;;7.36;98.38
49813;BME280;35706;52.100;5.056;2023-02-12T01:43:14;103798.28;;;7.45;97.92
49813;BME280;35706;52.100;5.056;2023-02-12T01:44:16;103794.69;;;7.49;97.83
49813;BME280;35706;52.100;5.056;2023-02-12T01:45:40;103799.09;;;7.48;97.69
49813;BME280;35706;52.100;5.056;2023-02-12T01:46:44;103795.66;;;7.46;97.58
49813;BME280;35706;52.100;5.056;2023-02-12T01:47:45;103791.44;;;7.41;97.67
49813;BME280;35706;52.100;5.056;2023-02-12T01:48:46;103793.13;;;7.43;97.65
49813;BME280;35706;52.100;5.056;2023-02-12T01:49:49;103795.75;;;7.43;97.67
49813;BME280;35706;52.100;5.056;2023-02-12T01:50:50;103800.19;;;7.40;98.06
49813;BME280;35706;52.100;5.056;2023-02-12T01:52:05;103797.63;;;7.38;98.09
49813;BME280;35706;52.100;5.056;2023-02-12T01:53:07;103797.69;;;7.37;98.17
49813;BME280;35706;52.100;5.056;2023-02-12T01:54:09;103802.09;;;7.34;98.23
49813;BME280;35706;52.100;5.056;2023-02-12T01:55:11;103801.28;;;7.32;98.32
49813;BME280;35706;52.100;5.056;2023-02-12T01:56:12;103793.38;;;7.34;98.26
49813;BME280;35706;52.100;5.056;2023-02-12T01:57:13;103801.22;;;7.34;98.27
49813;BME280;35706;52.100;5.056;2023-02-12T01:58:15;103798.59;;;7.34;98.18
49813;BME280;35706;52.100;5.056;2023-02-12T01:59:17;103795.06;;;7.37;98.16
49813;BME280;35706;52.100;5.056;2023-02-12T02:00:21;103794.16;;;7.38;97.90
49813;BME280;35706;52.100;5.056;2023-02-12T02:01:25;103789.78;;;7.38;98.07
49813;BME280;35706;52.100;5.056;2023-02-12T02:02:26;103797.72;;;7.35;98.04
49813;BME280;35706;52.100;5.056;2023-02-12T02:03:27;103790.81;;;7.32;98.06
49813;BME280;35706;52.100;5.056;2023-02-12T02:04:32;103790.81;;;7.32;98.28
49813;BME280;35706;52.100;5.056;2023-02-12T02:05:55;103790.88;;;7.29;98.43
49813;BME280;35706;52.100;5.056;2023-02-12T02:06:59;103790.03;;;7.29;98.44
49813;BME280;35706;52.100;5.056;2023-02-12T02:08:00;103791.72;;;7.30;98.55
49813;BME280;35706;52.100;5.056;2023-02-12T02:09:01;103793.31;;;7.37;98.42
49813;BME280;35706;52.100;5.056;2023-02-12T02:10:02;103790.69;;;7.37;98.47
49813;BME280;35706;52.100;5.056;2023-02-12T02:11:02;103781.16;;;7.34;98.14
49813;BME280;35706;52.100;5.056;2023-02-12T02:12:24;103788.19;;;7.32;98.22
49813;BME280;35706;52.100;5.056;2023-02-12T02:13:44;103789.84;;;7.37;98.17
49813;BME280;35706;52.100;5.056;2023-02-12T02:15:03;103791.63;;;7.34;98.16
49813;BME280;35706;52.100;5.056;2023-02-12T02:16:23;103793.44;;;7.32;98.31
49813;BME280;35706;52.100;5.056;2023-02-12T02:18:54;103797.75;;;7.33;98.30
49813;BME280;35706;52.100;5.056;2023-02-12T02:31:51;103794.88;;;7.43;97.40
49813;BME280;35706;52.100;5.056;2023-02-12T02:33:22;103788.81;;;7.41;97.65
49813;BME280;35706;52.100;5.056;2023-02-12T02:34:31;103786.31;;;7.38;97.83
49813;BME280;35706;52.100;5.056;2023-02-12T02:35:48;103785.44;;;7.37;97.70
49813;BME280;35706;52.100;5.056;2023-02-12T02:38:09;103781.16;;;7.34;97.62
49813;BME280;35706;52.100;5.056;2023-02-12T02:39:53;103779.59;;;7.27;97.81
49813;BME280;35706;52.100;5.056;2023-02-12T02:41:08;103786.56;;;7.28;97.95
49813;BME280;35706;52.100;5.056;2023-02-12T02:42:26;103779.69;;;7.24;98.12
49813;BME280;35706;52.100;5.056;2023-02-12T02:43:33;103781.50;;;7.22;97.98
49813;BME280;35706;52.100;5.056;2023-02-12T02:46:06;103770.97;;;7.24;97.95
49813;BME280;35706;52.100;5.056;2023-02-12T02:47:11;103782.31;;;7.24;98.06
49813;BME280;35706;52.100;5.056;2023-02-12T02:48:17;103780.59;;;7.23;97.84
49813;BME280;35706;52.100;5.056;2023-02-12T02:49:24;103777.09;;;7.24;97.91
49813;BME280;35706;52.100;5.056;2023-02-12T02:50:27;103771.88;;;7.23;97.99
49813;BME280;35706;52.100;5.056;2023-02-12T02:51:32;103769.16;;;7.26;98.05
49813;BME280;35706;52.100;5.056;2023-02-12T02:52:41;103777.13;;;7.23;98.06
49813;BME280;35706;52.100;5.056;2023-02-12T02:53:51;103775.44;;;7.20;98.19
49813;BME280;35706;52.100;5.056;2023-02-12T02:54:57;103768.41;;;7.22;98.21
49813;BME280;35706;52.100;5.056;2023-02-12T02:56:01;103769.06;;;7.30;97.97
49813;BME280;35706;52.100;5.056;2023-02-12T02:57:08;103769.94;;;7.29;97.79
49813;BME280;35706;52.100;5.056;2023-02-12T02:58:14;103768.41;;;7.22;97.98
49813;BME280;35706;52.100;5.056;2023-02-12T02:59:33;103771.03;;;7.22;98.11
49813;BME280;35706;52.100;5.056;2023-02-12T03:00:46;103777.84;;;7.28;97.83
49813;BME280;35706;52.100;5.056;2023-02-12T03:01:53;103771.03;;;7.22;97.92
49813;BME280;35706;52.100;5.056;2023-02-12T03:02:59;103770.97;;;7.24;97.77
49813;BME280;35706;52.100;5.056;2023-02-12T03:04:05;103776.34;;;7.19;97.77
49813;BME280;35706;52.100;5.056;2023-02-12T03:05:10;103773.59;;;7.24;97.81
49813;BME280;35706;52.100;5.056;2023-02-12T03:06:21;103771.88;;;7.23;97.52
49813;BME280;35706;52.100;5.056;2023-02-12T03:07:31;103777.81;;;7.29;97.58
49813;BME280;35706;52.100;5.056;2023-02-12T03:08:49;103777.09;;;7.24;97.36
49813;BME280;35706;52.100;5.056;2023-02-12T03:09:58;103772.72;;;7.23;97.58
49813;BME280;35706;52.100;5.056;2023-02-12T03:11:27;103773.56;;;7.25;97.41
49813;BME280;35706;52.100;5.056;2023-02-12T03:12:35;103769.06;;;7.30;97.01
49813;BME280;35706;52.100;5.056;2023-02-12T03:13:46;103767.34;;;7.29;97.01
49813;BME280;35706;52.100;5.056;2023-02-12T03:14:53;103776.09;;;7.28;96.83
49813;BME280;35706;52.100;5.056;2023-02-12T03:16:08;103772.66;;;7.26;96.84
49813;BME280;35706;52.100;5.056;2023-02-12T03:17:17;103771.03;;;7.22;97.04
49813;BME280;35706;52.100;5.056;2023-02-12T03:18:25;103770.88;;;7.28;96.76
49813;BME280;35706;52.100;5.056;2023-02-12T03:19:36;103769.78;;;7.36;96.63
49813;BME280;35706;52.100;5.056;2023-02-12T03:20:43;103765.53;;;7.31;96.55
49813;BME280;35706;52.100;5.056;2023-02-12T03:21:56;103763.84;;;7.30;96.68
49813;BME280;35706;52.100;5.056;2023-02-12T03:23:26;103766.44;;;7.30;96.76
49813;BME280;35706;52.100;5.056;2023-02-12T03:24:44;103761.38;;;7.24;97.04
49813;BME280;35706;52.100;5.056;2023-02-12T03:26:05;103756.09;;;7.26;96.82
49813;BME280;35706;52.100;5.056;2023-02-12T03:27:20;103759.66;;;7.23;97.01
49813;BME280;35706;52.100;5.056;2023-02-12T03:28:36;103765.88;;;7.19;97.18
49813;BME280;35706;52.100;5.056;2023-02-12T03:29:37;103763.13;;;7.24;96.98
49813;BME280;35706;52.100;5.056;2023-02-12T03:30:50;103765.81;;;7.22;96.97
49813;BME280;35706;52.100;5.056;2023-02-12T03:31:57;103755.28;;;7.24;96.73
49813;BME280;35706;52.100;5.056;2023-02-12T03:33:40;103764.06;;;7.21;96.77
49813;BME280;35706;52.100;5.056;2023-02-12T03:34:49;103761.38;;;7.24;96.62
49813;BME280;35706;52.100;5.056;2023-02-12T03:37:17;103766.56;;;7.26;96.29
49813;BME280;35706;52.100;5.056;2023-02-12T03:38:32;103762.91;;;7.31;96.22
49813;BME280;35706;52.100;5.056;2023-02-12T03:39:53;103764.69;;;7.31;96.05
49813;BME280;35706;52.100;5.056;2023-02-12T03:40:59;103763.06;;;7.27;96.11
49813;BME280;35706;52.100;5.056;2023-02-12T03:43:38;103764.69;;;7.31;96.15
49813;BME280;35706;52.100;5.056;2023-02-12T03:44:46;103761.97;;;7.34;95.93
49813;BME280;35706;52.100;5.056;2023-02-12T03:47:00;103778.03;;;7.22;96.05
49813;BME280;35706;52.100;5.056;2023-02-12T03:49:26;103771.88;;;7.23;96.19
49813;BME280;35706;52.100;5.056;2023-02-12T03:51:43;103775.34;;;7.23;96.12
49813;BME280;35706;52.100;5.056;2023-02-12T03:52:45;103772.81;;;7.22;96.09
49813;BME280;35706;52.100;5.056;2023-02-12T03:53:46;103773.53;;;7.27;96.04
49813;BME280;35706;52.100;5.056;2023-02-12T03:54:47;103765.75;;;7.24;95.87
49813;BME280;35706;52.100;5.056;2023-02-12T03:55:50;103773.66;;;7.22;96.15
49813;BME280;35706;52.100;5.056;2023-02-12T03:56:56;103772.84;;;7.20;96.00
49813;BME280;35706;52.100;5.056;2023-02-12T03:58:00;103772.66;;;7.26;95.74
49813;BME280;35706;52.100;5.056;2023-02-12T03:59:03;103773.66;;;7.22;95.67
49813;BME280;35706;52.100;5.056;2023-02-12T04:00:08;103786.47;;;7.31;95.34
49813;BME280;35706;52.100;5.056;2023-02-12T04:01:09;103779.44;;;7.33;94.92
49813;BME280;35706;52.100;5.056;2023-02-12T04:02:11;103779.53;;;7.30;95.07
49813;BME280;35706;52.100;5.056;2023-02-12T04:03:13;103779.44;;;7.33;94.99
49813;BME280;35706;52.100;5.056;2023-02-12T04:04:13;103776.75;;;7.37;94.63
49813;BME280;35706;52.100;5.056;2023-02-12T04:05:22;103780.03;;;7.43;94.61
49813;BME280;35706;52.100;5.056;2023-02-12T04:06:25;103779.22;;;7.41;94.24
49813;BME280;35706;52.100;5.056;2023-02-12T04:07:26;103777.47;;;7.42;94.15
49813;BME280;35706;52.100;5.056;2023-02-12T04:08:27;103779.38;;;7.37;93.71
49813;BME280;35706;52.100;5.056;2023-02-12T04:09:28;103781.03;;;7.39;93.52
49813;BME280;35706;52.100;5.056;2023-02-12T04:10:35;103785.59;;;7.32;93.36
49813;BME280;35706;52.100;5.056;2023-02-12T04:13:22;103776.84;;;7.32;93.07
49813;BME280;35706;52.100;5.056;2023-02-12T04:14:53;103784.66;;;7.33;92.70
49813;BME280;35706;52.100;5.056;2023-02-12T04:15:58;103782.09;;;7.32;92.66
49813;BME280;35706;52.100;5.056;2023-02-12T04:19:37;103792.66;;;7.29;92.56
49813;BME280;35706;52.100;5.056;2023-02-12T04:20:53;103791.13;;;7.22;92.82
49813;BME280;35706;52.100;5.056;2023-02-12T04:24:05;103790.81;;;7.32;92.53
49813;BME280;35706;52.100;5.056;2023-02-12T04:25:21;103795.06;;;7.37;92.37
49813;BME280;35706;52.100;5.056;2023-02-12T04:27:00;103796.75;;;7.38;92.01
49813;BME280;35706;52.100;5.056;2023-02-12T04:29:54;103801.28;;;7.32;92.74
49813;BME280;35706;52.100;5.056;2023-02-12T04:31:02;103799.59;;;7.30;92.24
49813;BME280;35706;52.100;5.056;2023-02-12T04:32:13;103802.16;;;7.31;92.48
49813;BME280;35706;52.100;5.056;2023-02-12T04:33:19;103796.97;;;7.30;92.08
49813;BME280;35706;52.100;5.056;2023-02-12T04:35:45;103802.44;;;7.22;92.49
49813;BME280;35706;52.100;5.056;2023-02-12T04:37:01;103801.56;;;7.22;92.64
49813;BME280;35706;52.100;5.056;2023-02-12T04:38:10;103804.91;;;7.27;92.46
49813;BME280;35706;52.100;5.056;2023-02-12T04:39:20;103807.72;;;7.19;92.72
49813;BME280;35706;52.100;5.056;2023-02-12T04:40:22;103810.28;;;7.22;92.62
49813;BME280;35706;52.100;5.056;2023-02-12T04:41:24;103806.75;;;7.23;92.45
49813;BME280;35706;52.100;5.056;2023-02-12T04:42:25;103808.25;;;7.32;92.53
49813;BME280;35706;52.100;5.056;2023-02-12T04:43:27;103808.38;;;7.27;92.59
49813;BME280;35706;52.100;5.056;2023-02-12T04:44:31;103807.66;;;7.22;92.56
49813;BME280;35706;52.100;5.056;2023-02-12T04:45:34;103811.78;;;7.31;92.48
49813;BME280;35706;52.100;5.056;2023-02-12T04:46:34;103814.59;;;7.23;92.65
49813;BME280;35706;52.100;5.056;2023-02-12T04:47:35;103814.69;;;7.20;92.58
49813;BME280;35706;52.100;5.056;2023-02-12T04:49:08;103812.97;;;7.19;92.67
49813;BME280;35706;52.100;5.056;2023-02-12T04:50:12;103812.94;;;7.21;92.50
49813;BME280;35706;52.100;5.056;2023-02-12T04:51:13;103807.78;;;7.18;92.59
49813;BME280;35706;52.100;5.056;2023-02-12T04:52:13;103806.19;;;7.12;92.68
49813;BME280;35706;52.100;5.056;2023-02-12T04:53:13;103810.50;;;7.13;92.69
49813;BME280;35706;52.100;5.056;2023-02-12T04:54:15;103811.28;;;7.17;92.99
49813;BME280;35706;52.100;5.056;2023-02-12T04:55:15;103813.22;;;7.10;92.69
49813;BME280;35706;52.100;5.056;2023-02-12T04:56:16;103816.56;;;7.15;92.56
49813;BME280;35706;52.100;5.056;2023-02-12T04:57:16;103815.63;;;7.18;92.78
49813;BME280;35706;52.100;5.056;2023-02-12T04:58:17;103810.22;;;7.24;92.35
49813;BME280;35706;52.100;5.056;2023-02-12T04:59:18;103808.66;;;7.18;92.21
49813;BME280;35706;52.100;5.056;2023-02-12T05:00:18;103817.03;;;7.29;92.64
49813;BME280;35706;52.100;5.056;2023-02-12T05:01:21;103820.22;;;7.41;91.89
49813;BME280;35706;52.100;5.056;2023-02-12T05:02:21;103813.13;;;7.46;91.58
49813;BME280;35706;52.100;5.056;2023-02-12T05:03:21;103811.19;;;7.52;91.34
49813;BME280;35706;52.100;5.056;2023-02-12T05:04:22;103815.72;;;7.46;91.25
49813;BME280;35706;52.100;5.056;2023-02-12T05:05:22;103808.88;;;7.42;91.30
49813;BME280;35706;52.100;5.056;2023-02-12T05:06:23;103810.66;;;7.40;91.60
49813;BME280;35706;52.100;5.056;2023-02-12T05:07:23;103812.50;;;7.36;91.42
49813;BME280;35706;52.100;5.056;2023-02-12T05:08:23;103823.84;;;7.37;91.54
49813;BME280;35706;52.100;5.056;2023-02-12T05:09:24;103807.56;;;7.25;91.63
49813;BME280;35706;52.100;5.056;2023-02-12T05:10:24;103816.03;;;7.35;91.89
49813;BME280;35706;52.100;5.056;2023-02-12T05:11:24;103823.06;;;7.33;91.56
49813;BME280;35706;52.100;5.056;2023-02-12T05:12:25;103827.47;;;7.31;91.40
49813;BME280;35706;52.100;5.056;2023-02-12T05:13:25;103819.63;;;7.31;91.60
49813;BME280;35706;52.100;5.056;2023-02-12T05:14:26;103818.88;;;7.26;91.85
49813;BME280;35706;52.100;5.056;2023-02-12T05:15:26;103815.50;;;7.22;92.01
49813;BME280;35706;52.100;5.056;2023-02-12T05:16:26;103814.59;;;7.23;92.27
49813;BME280;35706;52.100;5.056;2023-02-12T05:17:27;103812.94;;;7.21;92.25
49813;BME280;35706;52.100;5.056;2023-02-12T05:18:27;103815.53;;;7.21;92.29
49813;BME280;35706;52.100;5.056;2023-02-12T05:19:28;103814.81;;;7.16;92.26
49813;BME280;35706;52.100;5.056;2023-02-12T05:20:28;103807.03;;;7.12;92.66
49813;BME280;35706;52.100;5.056;2023-02-12T05:21:29;103813.06;;;7.16;92.49
49813;BME280;35706;52.100;5.056;2023-02-12T05:22:29;103817.31;;;7.20;92.14
49813;BME280;35706;52.100;5.056;2023-02-12T05:23:32;103814.69;;;7.20;92.11
49813;BME280;35706;52.100;5.056;2023-02-12T05:24:33;103812.97;;;7.19;92.15
49813;BME280;35706;52.100;5.056;2023-02-12T05:25:33;103812.13;;;7.17;92.22
49813;BME280;35706;52.100;5.056;2023-02-12T05:26:34;103813.19;;;7.11;92.31
49813;BME280;35706;52.100;5.056;2023-02-12T05:27:35;103816.66;;;7.12;92.54
49813;BME280;35706;52.100;5.056;2023-02-12T05:28:35;103805.41;;;7.08;92.41
49813;BME280;35706;52.100;5.056;2023-02-12T05:29:36;103807.06;;;7.11;92.75
49813;BME280;35706;52.100;5.056;2023-02-12T05:30:36;103812.22;;;7.16;92.64
49813;BME280;35706;52.100;5.056;2023-02-12T05:31:36;103816.41;;;7.21;92.42
49813;BME280;35706;52.100;5.056;2023-02-12T05:32:36;103815.66;;;7.16;92.26
49813;BME280;35706;52.100;5.056;2023-02-12T05:33:37;103812.28;;;7.12;92.28
49813;BME280;35706;52.100;5.056;2023-02-12T05:34:37;103819.16;;;7.15;92.32
49813;BME280;35706;52.100;5.056;2023-02-12T05:35:38;103818.44;;;7.10;92.53
49813;BME280;35706;52.100;5.056;2023-02-12T05:36:38;103808.78;;;7.13;92.62
49813;BME280;35706;52.100;5.056;2023-02-12T05:37:39;103815.75;;;7.13;92.61
49813;BME280;35706;52.100;5.056;2023-02-12T05:38:39;103816.50;;;7.18;92.55
49813;BME280;35706;52.100;5.056;2023-02-12T05:39:40;103811.97;;;7.23;92.34
49813;BME280;35706;52.100;5.056;2023-02-12T05:40:40;103809.34;;;7.25;92.23
49813;BME280;35706;52.100;5.056;2023-02-12T05:41:42;103810.94;;;7.30;92.08
49813;BME280;35706;52.100;5.056;2023-02-12T05:42:42;103821.59;;;7.23;92.19
49813;BME280;35706;52.100;5.056;2023-02-12T05:43:43;103816.34;;;7.24;92.12
49813;BME280;35706;52.100;5.056;2023-02-12T05:44:43;103817.97;;;7.28;92.06
49813;BME280;35706;52.100;5.056;2023-02-12T05:45:43;103812.75;;;7.27;92.08
49813;BME280;35706;52.100;5.056;2023-02-12T05:46:44;103811.16;;;7.21;91.73
49813;BME280;35706;52.100;5.056;2023-02-12T05:47:44;103814.56;;;7.25;92.03
49813;BME280;35706;52.100;5.056;2023-02-12T05:48:45;103815.44;;;7.24;91.80
49813;BME280;35706;52.100;5.056;2023-02-12T05:49:45;103815.56;;;7.19;92.06
49813;BME280;35706;52.100;5.056;2023-02-12T05:50:46;103820.94;;;7.14;92.13
49813;BME280;35706;52.100;5.056;2023-02-12T05:51:46;103810.44;;;7.16;92.28
49813;BME280;35706;52.100;5.056;2023-02-12T05:52:46;103823.44;;;7.19;92.28
49813;BME280;35706;52.100;5.056;2023-02-12T05:53:48;103816.38;;;7.23;92.25
49813;BME280;35706;52.100;5.056;2023-02-12T05:54:52;103820.59;;;7.28;91.95
49813;BME280;35706;52.100;5.056;2023-02-12T05:55:52;103819.06;;;7.20;91.95
49813;BME280;35706;52.100;5.056;2023-02-12T05:56:52;103815.53;;;7.21;91.94
49813;BME280;35706;52.100;5.056;2023-02-12T05:57:53;103813.72;;;7.24;91.94
49813;BME280;35706;52.100;5.056;2023-02-12T05:58:56;103813.84;;;7.20;91.86
49813;BME280;35706;52.100;5.056;2023-02-12T05:59:57;103814.69;;;7.20;92.28
49813;BME280;35706;52.100;5.056;2023-02-12T06:00:57;103812.28;;;7.12;92.31
49813;BME280;35706;52.100;5.056;2023-02-12T06:01:57;103821.03;;;7.11;92.37
49813;BME280;35706;52.100;5.056;2023-02-12T06:02:57;103815.84;;;7.10;92.63
49813;BME280;35706;52.100;5.056;2023-02-12T06:03:59;103825.31;;;7.14;92.55
49813;BME280;35706;52.100;5.056;2023-02-12T06:05:00;103815.72;;;7.14;92.42
49813;BME280;35706;52.100;5.056;2023-02-12T06:06:00;103822.72;;;7.12;92.61
49813;BME280;35706;52.100;5.056;2023-02-12T06:07:00;103811.44;;;7.10;92.65
49813;BME280;35706;52.100;5.056;2023-02-12T06:08:01;103818.50;;;7.07;92.80
49813;BME280;35706;52.100;5.056;2023-02-12T06:09:02;103813.28;;;7.07;92.93
49813;BME280;35706;52.100;5.056;2023-02-12T06:10:02;103821.91;;;7.10;92.94
49813;BME280;35706;52.100;5.056;2023-02-12T06:11:06;103821.91;;;7.10;92.88
49813;BME280;35706;52.100;5.056;2023-02-12T06:12:06;103820.97;;;7.13;92.69